sensor_id;sensor_type;location;lat;lon;timestamp;P1;durP1;ratioP1;P2;durP2;ratioP2
12792;SDS011;6460;42.684;23.260;2024-03-22T00:03:23;14.80;;;9.40;;
12792;SDS011;6460;42.684;23.260;2024-03-22T00:29:58;17.63;;;11.73;;
12792;SDS011;6460;42.684;23.260;2024-03-22T00:42:17;13.00;;;8.20;;
12792;SDS011;6460;42.684;23.260;2024-03-22T00:45:02;20.53;;;9.00;;
12792;SDS011;6460;42.684;23.260;2024-03-22T00:47:29;14.43;;;7.90;;
12792;SDS011;6460;42.684;23.260;2024-03-22T00:49:56;14.20;;;8.73;;
12792;SDS011;6460;42.684;23.260;2024-03-22T02:11:24;15.53;;;10.53;;
12792;SDS011;6460;42.684;23.260;2024-03-22T02:13:52;15.53;;;10.37;;
12792;SDS011;6460;42.684;23.260;2024-03-22T02:16:27;15.27;;;10.03;;
12792;SDS011;6460;42.684;23.260;2024-03-22T02:19:04;18.93;;;9.20;;
12792;SDS011;6460;42.684;23.260;2024-03-22T02:21:30;14.87;;;9.90;;
12792;SDS011;6460;42.684;23.260;2024-03-22T02:23:59;15.60;;;10.47;;
12792;SDS011;6460;42.684;23.260;2024-03-22T02:26:42;15.03;;;9.60;;
12792;SDS011;6460;42.684;23.260;2024-03-22T02:29:09;14.83;;;9.53;;
12792;SDS011;6460;42.684;23.260;2024-03-22T02:31:35;16.60;;;9.63;;
12792;SDS011;6460;42.684;23.260;2024-03-22T02:37:16;14.07;;;10.00;;
12792;SDS011;6460;42.684;23.260;2024-03-22T02:39:45;18.17;;;9.90;;
12792;SDS011;6460;42.684;23.260;2024-03-22T02:45:16;15.37;;;9.40;;
12792;SDS011;6460;42.684;23.260;2024-03-22T02:47:54;14.50;;;9.03;;
12792;SDS011;6460;42.684;23.260;2024-03-22T02:50:21;14.93;;;8.93;;
12792;SDS011;6460;42.684;23.260;2024-03-22T02:52:50;17.13;;;9.93;;
12792;SDS011;6460;42.684;23.260;2024-03-22T02:55:19;19.50;;;9.87;;
12792;SDS011;6460;42.684;23.260;2024-03-22T02:57:45;21.10;;;11.33;;
12792;SDS011;6460;42.684;23.260;2024-03-22T03:03:07;20.93;;;11.90;;
12792;SDS011;6460;42.684;23.260;2024-03-22T03:05:34;21.07;;;11.90;;
12792;SDS011;6460;42.684;23.260;2024-03-22T03:08:00;19.33;;;11.40;;
12792;SDS011;6460;42.684;23.260;2024-03-22T03:10:29;21.60;;;12.40;;
12792;SDS011;6460;42.684;23.260;2024-03-22T03:12:55;19.83;;;11.57;;
12792;SDS011;6460;42.684;23.260;2024-03-22T03:15:23;18.37;;;11.87;;
12792;SDS011;6460;42.684;23.260;2024-03-22T03:24:16;16.93;;;11.07;;
12792;SDS011;6460;42.684;23.260;2024-03-22T03:26:44;18.73;;;11.63;;
12792;SDS011;6460;42.684;23.260;2024-03-22T03:54:14;17.77;;;10.17;;
12792;SDS011;6460;42.684;23.260;2024-03-22T04:17:26;16.07;;;9.70;;
12792;SDS011;6460;42.684;23.260;2024-03-22T04:30:06;12.77;;;8.07;;
12792;SDS011;6460;42.684;23.260;2024-03-22T04:36:12;15.00;;;9.03;;
12792;SDS011;6460;42.684;23.260;2024-03-22T04:42:18;15.97;;;9.70;;
12792;SDS011;6460;42.684;23.260;2024-03-22T04:44:45;17.00;;;9.83;;
12792;SDS011;6460;42.684;23.260;2024-03-22T04:47:12;17.03;;;9.40;;
12792;SDS011;6460;42.684;23.260;2024-03-22T04:49:42;16.33;;;9.20;;
12792;SDS011;6460;42.684;23.260;2024-03-22T05:01:51;15.67;;;9.67;;
12792;SDS011;6460;42.684;23.260;2024-03-22T05:04:18;17.03;;;11.30;;
12792;SDS011;6460;42.684;23.260;2024-03-22T05:06:44;21.87;;;11.50;;
12792;SDS011;6460;42.684;23.260;2024-03-22T05:19:18;21.27;;;12.20;;
12792;SDS011;6460;42.684;23.260;2024-03-22T05:21:45;22.40;;;12.87;;
12792;SDS011;6460;42.684;23.260;2024-03-22T05:24:11;29.70;;;13.27;;
12792;SDS011;6460;42.684;23.260;2024-03-22T05:26:38;21.93;;;12.40;;
12792;SDS011;6460;42.684;23.260;2024-03-22T05:29:10;21.27;;;13.13;;
12792;SDS011;6460;42.684;23.260;2024-03-22T05:31:46;21.93;;;14.00;;
12792;SDS011;6460;42.684;23.260;2024-03-22T05:34:13;26.13;;;14.97;;
12792;SDS011;6460;42.684;23.260;2024-03-22T05:36:42;23.80;;;16.27;;
12792;SDS011;6460;42.684;23.260;2024-03-22T05:39:08;32.63;;;17.90;;
12792;SDS011;6460;42.684;23.260;2024-03-22T05:41:45;34.23;;;17.83;;
12792;SDS011;6460;42.684;23.260;2024-03-22T05:44:11;30.00;;;18.53;;
12792;SDS011;6460;42.684;23.260;2024-03-22T05:46:38;39.37;;;20.27;;
12792;SDS011;6460;42.684;23.260;2024-03-22T05:51:54;33.43;;;20.57;;
12792;SDS011;6460;42.684;23.260;2024-03-22T05:57:11;35.27;;;21.97;;
12792;SDS011;6460;42.684;23.260;2024-03-22T05:59:37;41.43;;;23.70;;
12792;SDS011;6460;42.684;23.260;2024-03-22T06:02:04;36.50;;;23.47;;
12792;SDS011;6460;42.684;23.260;2024-03-22T06:04:30;35.27;;;22.03;;
12792;SDS011;6460;42.684;23.260;2024-03-22T06:06:59;32.93;;;20.33;;
12792;SDS011;6460;42.684;23.260;2024-03-22T06:09:25;28.77;;;17.17;;
12792;SDS011;6460;42.684;23.260;2024-03-22T06:12:02;29.53;;;16.83;;
12792;SDS011;6460;42.684;23.260;2024-03-22T06:14:30;32.37;;;17.27;;
12792;SDS011;6460;42.684;23.260;2024-03-22T06:16:57;25.97;;;16.27;;
12792;SDS011;6460;42.684;23.260;2024-03-22T06:19:23;29.97;;;16.00;;
12792;SDS011;6460;42.684;23.260;2024-03-22T06:21:51;26.93;;;14.73;;
12792;SDS011;6460;42.684;23.260;2024-03-22T06:24:18;23.47;;;12.93;;
12792;SDS011;6460;42.684;23.260;2024-03-22T06:26:45;21.40;;;12.97;;
12792;SDS011;6460;42.684;23.260;2024-03-22T06:29:11;20.57;;;12.93;;
12792;SDS011;6460;42.684;23.260;2024-03-22T06:31:39;20.67;;;13.20;;
12792;SDS011;6460;42.684;23.260;2024-03-22T06:34:11;23.80;;;13.33;;
12792;SDS011;6460;42.684;23.260;2024-03-22T06:36:40;17.70;;;11.60;;
12792;SDS011;6460;42.684;23.260;2024-03-22T06:39:07;19.00;;;10.57;;
12792;SDS011;6460;42.684;23.260;2024-03-22T06:41:36;20.27;;;11.67;;
12792;SDS011;6460;42.684;23.260;2024-03-22T06:44:02;18.97;;;11.83;;
12792;SDS011;6460;42.684;23.260;2024-03-22T06:46:30;21.30;;;11.97;;
12792;SDS011;6460;42.684;23.260;2024-03-22T06:48:57;21.17;;;11.87;;
12792;SDS011;6460;42.684;23.260;2024-03-22T06:51:39;13.03;;;10.30;;
12792;SDS011;6460;42.684;23.260;2024-03-22T06:54:05;16.20;;;10.37;;
12792;SDS011;6460;42.684;23.260;2024-03-22T06:56:52;18.00;;;10.63;;
12792;SDS011;6460;42.684;23.260;2024-03-22T06:59:18;19.33;;;11.03;;
12792;SDS011;6460;42.684;23.260;2024-03-22T07:05:20;22.47;;;12.90;;
12792;SDS011;6460;42.684;23.260;2024-03-22T07:07:53;20.40;;;12.73;;
12792;SDS011;6460;42.684;23.260;2024-03-22T07:16:23;21.93;;;12.40;;
12792;SDS011;6460;42.684;23.260;2024-03-22T07:18:50;16.73;;;12.70;;
12792;SDS011;6460;42.684;23.260;2024-03-22T07:21:17;20.23;;;12.27;;
12792;SDS011;6460;42.684;23.260;2024-03-22T07:23:44;20.33;;;12.63;;
12792;SDS011;6460;42.684;23.260;2024-03-22T07:26:19;20.57;;;12.20;;
12792;SDS011;6460;42.684;23.260;2024-03-22T07:29:06;19.23;;;12.67;;
12792;SDS011;6460;42.684;23.260;2024-03-22T07:31:35;23.87;;;13.20;;
12792;SDS011;6460;42.684;23.260;2024-03-22T07:37:27;18.67;;;12.63;;
12792;SDS011;6460;42.684;23.260;2024-03-22T07:39:55;21.87;;;13.23;;
12792;SDS011;6460;42.684;23.260;2024-03-22T07:42:21;22.70;;;13.37;;
12792;SDS011;6460;42.684;23.260;2024-03-22T07:59:17;13.73;;;9.77;;
12792;SDS011;6460;42.684;23.260;2024-03-22T08:08:18;23.67;;;16.03;;
12792;SDS011;6460;42.684;23.260;2024-03-22T08:13:25;12.37;;;7.33;;
12792;SDS011;6460;42.684;23.260;2024-03-22T08:15:53;8.37;;;6.33;;
12792;SDS011;6460;42.684;23.260;2024-03-22T08:18:20;14.73;;;7.27;;
12792;SDS011;6460;42.684;23.260;2024-03-22T08:20:51;15.67;;;7.27;;
12792;SDS011;6460;42.684;23.260;2024-03-22T08:23:18;9.87;;;6.70;;
12792;SDS011;6460;42.684;23.260;2024-03-22T08:25:45;9.33;;;6.47;;
12792;SDS011;6460;42.684;23.260;2024-03-22T08:28:13;9.43;;;6.17;;
12792;SDS011;6460;42.684;23.260;2024-03-22T08:30:49;11.13;;;6.33;;
12792;SDS011;6460;42.684;23.260;2024-03-22T08:33:19;9.20;;;6.10;;
12792;SDS011;6460;42.684;23.260;2024-03-22T08:35:47;7.43;;;5.67;;
12792;SDS011;6460;42.684;23.260;2024-03-22T08:38:14;7.00;;;6.13;;
12792;SDS011;6460;42.684;23.260;2024-03-22T08:44:21;5.33;;;4.50;;
12792;SDS011;6460;42.684;23.260;2024-03-22T08:46:48;8.50;;;5.30;;
12792;SDS011;6460;42.684;23.260;2024-03-22T08:49:17;7.27;;;4.50;;
12792;SDS011;6460;42.684;23.260;2024-03-22T08:51:45;7.57;;;4.90;;
12792;SDS011;6460;42.684;23.260;2024-03-22T08:54:17;7.87;;;6.30;;
12792;SDS011;6460;42.684;23.260;2024-03-22T09:07:29;5.90;;;4.13;;
12792;SDS011;6460;42.684;23.260;2024-03-22T09:13:20;4.80;;;3.80;;
12792;SDS011;6460;42.684;23.260;2024-03-22T09:15:47;6.37;;;4.17;;
12792;SDS011;6460;42.684;23.260;2024-03-22T09:20:49;5.57;;;4.20;;
12792;SDS011;6460;42.684;23.260;2024-03-22T09:26:10;6.00;;;4.40;;
12792;SDS011;6460;42.684;23.260;2024-03-22T09:28:36;5.93;;;3.87;;
12792;SDS011;6460;42.684;23.260;2024-03-22T09:31:03;7.90;;;4.17;;
12792;SDS011;6460;42.684;23.260;2024-03-22T09:33:31;5.57;;;4.10;;
12792;SDS011;6460;42.684;23.260;2024-03-22T09:36:00;8.20;;;4.03;;
12792;SDS011;6460;42.684;23.260;2024-03-22T09:38:27;7.97;;;4.60;;
12792;SDS011;6460;42.684;23.260;2024-03-22T09:40:53;7.80;;;4.77;;
12792;SDS011;6460;42.684;23.260;2024-03-22T09:43:20;6.13;;;4.30;;
12792;SDS011;6460;42.684;23.260;2024-03-22T09:45:49;6.33;;;4.27;;
12792;SDS011;6460;42.684;23.260;2024-03-22T09:48:17;7.70;;;3.70;;
12792;SDS011;6460;42.684;23.260;2024-03-22T09:50:44;7.03;;;4.53;;
12792;SDS011;6460;42.684;23.260;2024-03-22T09:53:14;5.47;;;4.50;;
12792;SDS011;6460;42.684;23.260;2024-03-22T09:55:44;6.53;;;4.17;;
12792;SDS011;6460;42.684;23.260;2024-03-22T09:58:11;6.20;;;3.87;;
12792;SDS011;6460;42.684;23.260;2024-03-22T10:00:39;6.30;;;4.47;;
12792;SDS011;6460;42.684;23.260;2024-03-22T10:03:07;6.27;;;4.63;;
12792;SDS011;6460;42.684;23.260;2024-03-22T10:05:33;5.27;;;4.07;;
12792;SDS011;6460;42.684;23.260;2024-03-22T10:08:01;4.43;;;3.87;;
12792;SDS011;6460;42.684;23.260;2024-03-22T10:10:30;5.73;;;3.90;;
12792;SDS011;6460;42.684;23.260;2024-03-22T10:13:00;6.50;;;4.00;;
12792;SDS011;6460;42.684;23.260;2024-03-22T10:15:26;8.17;;;4.90;;
12792;SDS011;6460;42.684;23.260;2024-03-22T10:17:53;6.27;;;4.40;;
12792;SDS011;6460;42.684;23.260;2024-03-22T10:20:25;8.00;;;4.43;;
12792;SDS011;6460;42.684;23.260;2024-03-22T10:22:55;6.73;;;4.00;;
12792;SDS011;6460;42.684;23.260;2024-03-22T10:25:23;7.77;;;4.70;;
12792;SDS011;6460;42.684;23.260;2024-03-22T10:27:53;7.93;;;4.90;;
12792;SDS011;6460;42.684;23.260;2024-03-22T10:30:23;4.67;;;4.00;;
12792;SDS011;6460;42.684;23.260;2024-03-22T10:32:53;5.23;;;4.00;;
12792;SDS011;6460;42.684;23.260;2024-03-22T10:35:19;4.67;;;3.90;;
12792;SDS011;6460;42.684;23.260;2024-03-22T10:37:47;28.07;;;17.80;;
12792;SDS011;6460;42.684;23.260;2024-03-22T10:40:14;5.80;;;5.13;;
12792;SDS011;6460;42.684;23.260;2024-03-22T10:42:41;4.40;;;3.73;;
12792;SDS011;6460;42.684;23.260;2024-03-22T10:45:10;5.37;;;3.93;;
12792;SDS011;6460;42.684;23.260;2024-03-22T10:47:39;7.80;;;3.77;;
12792;SDS011;6460;42.684;23.260;2024-03-22T10:50:06;10.23;;;5.60;;
12792;SDS011;6460;42.684;23.260;2024-03-22T10:52:37;9.57;;;4.50;;
12792;SDS011;6460;42.684;23.260;2024-03-22T10:55:05;7.17;;;3.90;;
12792;SDS011;6460;42.684;23.260;2024-03-22T10:57:37;7.23;;;3.53;;
12792;SDS011;6460;42.684;23.260;2024-03-22T11:00:04;5.67;;;4.13;;
12792;SDS011;6460;42.684;23.260;2024-03-22T11:02:37;5.70;;;3.67;;
12792;SDS011;6460;42.684;23.260;2024-03-22T11:05:04;10.03;;;7.97;;
12792;SDS011;6460;42.684;23.260;2024-03-22T11:07:32;6.10;;;4.10;;
12792;SDS011;6460;42.684;23.260;2024-03-22T11:10:00;8.60;;;5.13;;
12792;SDS011;6460;42.684;23.260;2024-03-22T11:12:29;4.23;;;3.83;;
12792;SDS011;6460;42.684;23.260;2024-03-22T11:14:58;8.23;;;4.23;;
12792;SDS011;6460;42.684;23.260;2024-03-22T11:17:28;4.90;;;3.80;;
12792;SDS011;6460;42.684;23.260;2024-03-22T11:19:54;5.47;;;3.40;;
12792;SDS011;6460;42.684;23.260;2024-03-22T11:22:22;5.43;;;3.50;;
12792;SDS011;6460;42.684;23.260;2024-03-22T11:24:48;4.53;;;3.80;;
12792;SDS011;6460;42.684;23.260;2024-03-22T11:27:15;4.43;;;3.63;;
12792;SDS011;6460;42.684;23.260;2024-03-22T11:29:41;4.80;;;3.67;;
12792;SDS011;6460;42.684;23.260;2024-03-22T11:32:11;7.70;;;4.23;;
12792;SDS011;6460;42.684;23.260;2024-03-22T11:34:39;5.87;;;4.20;;
12792;SDS011;6460;42.684;23.260;2024-03-22T11:37:07;5.53;;;3.60;;
12792;SDS011;6460;42.684;23.260;2024-03-22T11:39:36;6.87;;;3.90;;
12792;SDS011;6460;42.684;23.260;2024-03-22T11:42:04;7.20;;;3.63;;
12792;SDS011;6460;42.684;23.260;2024-03-22T11:44:32;7.27;;;4.20;;
12792;SDS011;6460;42.684;23.260;2024-03-22T11:47:00;5.37;;;4.50;;
12792;SDS011;6460;42.684;23.260;2024-03-22T11:49:32;5.67;;;4.17;;
12792;SDS011;6460;42.684;23.260;2024-03-22T11:52:04;6.80;;;4.73;;
12792;SDS011;6460;42.684;23.260;2024-03-22T11:54:33;5.27;;;4.00;;
12792;SDS011;6460;42.684;23.260;2024-03-22T12:06:57;82.10;;;58.90;;
12792;SDS011;6460;42.684;23.260;2024-03-22T12:09:27;8.27;;;4.80;;
12792;SDS011;6460;42.684;23.260;2024-03-22T12:18:49;5.20;;;3.80;;
12792;SDS011;6460;42.684;23.260;2024-03-22T12:21:16;5.20;;;4.13;;
12792;SDS011;6460;42.684;23.260;2024-03-22T12:23:43;4.17;;;3.67;;
12792;SDS011;6460;42.684;23.260;2024-03-22T12:29:24;4.43;;;4.00;;
12792;SDS011;6460;42.684;23.260;2024-03-22T12:31:54;5.47;;;4.13;;
12792;SDS011;6460;42.684;23.260;2024-03-22T12:48:07;4.90;;;3.83;;
12792;SDS011;6460;42.684;23.260;2024-03-22T12:50:34;4.13;;;3.73;;
12792;SDS011;6460;42.684;23.260;2024-03-22T12:56:27;6.63;;;3.23;;
12792;SDS011;6460;42.684;23.260;2024-03-22T13:05:16;4.27;;;3.63;;
12792;SDS011;6460;42.684;23.260;2024-03-22T13:07:42;9.20;;;4.53;;
12792;SDS011;6460;42.684;23.260;2024-03-22T13:10:09;4.37;;;3.57;;
12792;SDS011;6460;42.684;23.260;2024-03-22T13:12:35;4.43;;;3.20;;
12792;SDS011;6460;42.684;23.260;2024-03-22T13:15:03;5.20;;;3.90;;
12792;SDS011;6460;42.684;23.260;2024-03-22T13:17:29;13.20;;;3.83;;
12792;SDS011;6460;42.684;23.260;2024-03-22T13:19:57;6.83;;;3.70;;
12792;SDS011;6460;42.684;23.260;2024-03-22T13:22:27;6.80;;;3.60;;
12792;SDS011;6460;42.684;23.260;2024-03-22T13:24:55;7.00;;;3.50;;
12792;SDS011;6460;42.684;23.260;2024-03-22T13:27:21;6.23;;;4.60;;
12792;SDS011;6460;42.684;23.260;2024-03-22T13:29:51;4.97;;;3.50;;
12792;SDS011;6460;42.684;23.260;2024-03-22T13:32:17;5.00;;;3.90;;
12792;SDS011;6460;42.684;23.260;2024-03-22T13:34:45;3.83;;;3.43;;
12792;SDS011;6460;42.684;23.260;2024-03-22T13:37:15;5.30;;;3.53;;
12792;SDS011;6460;42.684;23.260;2024-03-22T13:39:48;9.40;;;3.67;;
12792;SDS011;6460;42.684;23.260;2024-03-22T13:42:14;7.40;;;3.97;;
12792;SDS011;6460;42.684;23.260;2024-03-22T13:44:42;4.03;;;3.60;;
12792;SDS011;6460;42.684;23.260;2024-03-22T13:47:08;4.33;;;3.13;;
12792;SDS011;6460;42.684;23.260;2024-03-22T13:49:35;5.93;;;3.90;;
12792;SDS011;6460;42.684;23.260;2024-03-22T13:52:01;4.97;;;3.67;;
12792;SDS011;6460;42.684;23.260;2024-03-22T13:54:29;4.83;;;3.60;;
12792;SDS011;6460;42.684;23.260;2024-03-22T13:56:57;4.63;;;3.87;;
12792;SDS011;6460;42.684;23.260;2024-03-22T13:59:25;7.37;;;4.50;;
12792;SDS011;6460;42.684;23.260;2024-03-22T14:01:51;4.33;;;3.93;;
12792;SDS011;6460;42.684;23.260;2024-03-22T14:04:18;4.40;;;4.00;;
12792;SDS011;6460;42.684;23.260;2024-03-22T14:06:45;4.10;;;3.60;;
12792;SDS011;6460;42.684;23.260;2024-03-22T14:09:12;5.40;;;3.90;;
12792;SDS011;6460;42.684;23.260;2024-03-22T14:11:38;6.60;;;4.07;;
12792;SDS011;6460;42.684;23.260;2024-03-22T14:14:09;6.27;;;3.90;;
12792;SDS011;6460;42.684;23.260;2024-03-22T14:16:37;6.33;;;3.87;;
12792;SDS011;6460;42.684;23.260;2024-03-22T14:19:04;4.47;;;3.80;;
12792;SDS011;6460;42.684;23.260;2024-03-22T14:21:30;7.07;;;4.47;;
12792;SDS011;6460;42.684;23.260;2024-03-22T14:23:57;5.43;;;3.90;;
12792;SDS011;6460;42.684;23.260;2024-03-22T14:26:23;4.13;;;3.70;;
12792;SDS011;6460;42.684;23.260;2024-03-22T14:28:51;5.67;;;4.07;;
12792;SDS011;6460;42.684;23.260;2024-03-22T14:31:19;4.47;;;3.97;;
12792;SDS011;6460;42.684;23.260;2024-03-22T14:33:46;4.77;;;3.57;;
12792;SDS011;6460;42.684;23.260;2024-03-22T14:36:13;4.57;;;3.80;;
12792;SDS011;6460;42.684;23.260;2024-03-22T14:58:21;6.73;;;3.77;;
12792;SDS011;6460;42.684;23.260;2024-03-22T15:00:53;4.40;;;3.50;;
12792;SDS011;6460;42.684;23.260;2024-03-22T15:03:19;5.23;;;3.47;;
12792;SDS011;6460;42.684;23.260;2024-03-22T15:09:24;5.97;;;3.50;;
12792;SDS011;6460;42.684;23.260;2024-03-22T15:11:55;5.33;;;3.83;;
12792;SDS011;6460;42.684;23.260;2024-03-22T15:14:24;9.67;;;4.30;;
12792;SDS011;6460;42.684;23.260;2024-03-22T15:16:56;7.40;;;4.33;;
12792;SDS011;6460;42.684;23.260;2024-03-22T15:19:24;7.33;;;4.40;;
12792;SDS011;6460;42.684;23.260;2024-03-22T15:21:50;8.90;;;4.07;;
12792;SDS011;6460;42.684;23.260;2024-03-22T15:27:08;5.13;;;4.20;;
12792;SDS011;6460;42.684;23.260;2024-03-22T15:29:34;4.93;;;3.70;;
12792;SDS011;6460;42.684;23.260;2024-03-22T15:32:02;5.97;;;4.10;;
12792;SDS011;6460;42.684;23.260;2024-03-22T15:34:28;6.67;;;4.17;;
12792;SDS011;6460;42.684;23.260;2024-03-22T15:36:56;8.30;;;4.30;;
12792;SDS011;6460;42.684;23.260;2024-03-22T15:39:22;5.20;;;4.07;;
12792;SDS011;6460;42.684;23.260;2024-03-22T15:42:13;4.77;;;3.70;;
12792;SDS011;6460;42.684;23.260;2024-03-22T15:44:57;5.33;;;4.50;;
12792;SDS011;6460;42.684;23.260;2024-03-22T15:47:28;5.67;;;4.33;;
12792;SDS011;6460;42.684;23.260;2024-03-22T15:49:55;6.27;;;4.20;;
12792;SDS011;6460;42.684;23.260;2024-03-22T15:52:25;8.93;;;5.03;;
12792;SDS011;6460;42.684;23.260;2024-03-22T15:54:54;5.37;;;4.50;;
12792;SDS011;6460;42.684;23.260;2024-03-22T16:11:03;7.10;;;3.60;;
12792;SDS011;6460;42.684;23.260;2024-03-22T16:13:31;4.67;;;3.60;;
12792;SDS011;6460;42.684;23.260;2024-03-22T16:15:58;4.70;;;4.20;;
12792;SDS011;6460;42.684;23.260;2024-03-22T16:22:39;6.13;;;3.67;;
12792;SDS011;6460;42.684;23.260;2024-03-22T16:25:39;4.93;;;3.97;;
12792;SDS011;6460;42.684;23.260;2024-03-22T16:28:08;6.00;;;3.63;;
12792;SDS011;6460;42.684;23.260;2024-03-22T16:30:34;5.50;;;3.70;;
12792;SDS011;6460;42.684;23.260;2024-03-22T16:33:16;8.67;;;4.20;;
12792;SDS011;6460;42.684;23.260;2024-03-22T16:35:58;7.33;;;4.63;;
12792;SDS011;6460;42.684;23.260;2024-03-22T16:38:42;7.03;;;4.57;;
12792;SDS011;6460;42.684;23.260;2024-03-22T16:41:10;10.27;;;4.03;;
12792;SDS011;6460;42.684;23.260;2024-03-22T16:43:37;6.33;;;3.87;;
12792;SDS011;6460;42.684;23.260;2024-03-22T16:46:21;10.47;;;4.03;;
12792;SDS011;6460;42.684;23.260;2024-03-22T16:49:02;6.63;;;4.40;;
12792;SDS011;6460;42.684;23.260;2024-03-22T16:51:34;7.20;;;4.50;;
12792;SDS011;6460;42.684;23.260;2024-03-22T16:54:03;6.57;;;4.10;;
12792;SDS011;6460;42.684;23.260;2024-03-22T16:56:33;6.33;;;3.73;;
12792;SDS011;6460;42.684;23.260;2024-03-22T16:58:59;6.83;;;3.80;;
12792;SDS011;6460;42.684;23.260;2024-03-22T17:01:31;7.23;;;3.77;;
12792;SDS011;6460;42.684;23.260;2024-03-22T17:06:56;7.27;;;4.33;;
12792;SDS011;6460;42.684;23.260;2024-03-22T17:12:52;5.80;;;3.70;;
12792;SDS011;6460;42.684;23.260;2024-03-22T17:15:23;7.77;;;3.50;;
12792;SDS011;6460;42.684;23.260;2024-03-22T17:17:50;6.63;;;3.77;;
12792;SDS011;6460;42.684;23.260;2024-03-22T17:20:31;7.13;;;4.30;;
12792;SDS011;6460;42.684;23.260;2024-03-22T17:23:08;7.00;;;4.50;;
12792;SDS011;6460;42.684;23.260;2024-03-22T17:25:34;4.83;;;4.17;;
12792;SDS011;6460;42.684;23.260;2024-03-22T17:28:07;12.10;;;8.93;;
12792;SDS011;6460;42.684;23.260;2024-03-22T17:30:35;17.93;;;13.00;;
12792;SDS011;6460;42.684;23.260;2024-03-22T17:33:04;10.37;;;5.47;;
12792;SDS011;6460;42.684;23.260;2024-03-22T17:35:30;7.70;;;5.23;;
12792;SDS011;6460;42.684;23.260;2024-03-22T17:37:57;9.07;;;5.93;;
12792;SDS011;6460;42.684;23.260;2024-03-22T17:40:25;12.53;;;5.80;;
12792;SDS011;6460;42.684;23.260;2024-03-22T17:42:52;10.63;;;6.20;;
12792;SDS011;6460;42.684;23.260;2024-03-22T17:45:20;12.33;;;6.10;;
12792;SDS011;6460;42.684;23.260;2024-03-22T17:48:02;8.17;;;6.33;;
12792;SDS011;6460;42.684;23.260;2024-03-22T17:50:28;15.13;;;7.20;;
12792;SDS011;6460;42.684;23.260;2024-03-22T17:52:55;11.43;;;7.57;;
12792;SDS011;6460;42.684;23.260;2024-03-22T17:55:21;10.20;;;6.63;;
12792;SDS011;6460;42.684;23.260;2024-03-22T17:57:48;10.63;;;6.20;;
12792;SDS011;6460;42.684;23.260;2024-03-22T18:00:15;11.73;;;6.87;;
12792;SDS011;6460;42.684;23.260;2024-03-22T18:02:45;15.90;;;7.63;;
12792;SDS011;6460;42.684;23.260;2024-03-22T18:05:11;11.50;;;6.83;;
12792;SDS011;6460;42.684;23.260;2024-03-22T18:07:39;8.80;;;6.77;;
12792;SDS011;6460;42.684;23.260;2024-03-22T18:10:05;14.27;;;9.23;;
12792;SDS011;6460;42.684;23.260;2024-03-22T18:12:33;30.47;;;20.07;;
12792;SDS011;6460;42.684;23.260;2024-03-22T18:14:59;16.07;;;8.00;;
12792;SDS011;6460;42.684;23.260;2024-03-22T18:17:27;14.63;;;7.90;;
12792;SDS011;6460;42.684;23.260;2024-03-22T18:19:54;12.63;;;6.47;;
12792;SDS011;6460;42.684;23.260;2024-03-22T18:22:26;12.70;;;7.37;;
12792;SDS011;6460;42.684;23.260;2024-03-22T18:24:52;10.97;;;7.73;;
12792;SDS011;6460;42.684;23.260;2024-03-22T18:27:19;11.67;;;7.77;;
12792;SDS011;6460;42.684;23.260;2024-03-22T18:29:45;9.40;;;7.07;;
12792;SDS011;6460;42.684;23.260;2024-03-22T18:32:12;10.23;;;6.20;;
12792;SDS011;6460;42.684;23.260;2024-03-22T18:34:42;16.10;;;7.80;;
12792;SDS011;6460;42.684;23.260;2024-03-22T18:37:11;12.30;;;8.13;;
12792;SDS011;6460;42.684;23.260;2024-03-22T18:39:37;11.40;;;8.30;;
12792;SDS011;6460;42.684;23.260;2024-03-22T18:42:04;14.63;;;8.43;;
12792;SDS011;6460;42.684;23.260;2024-03-22T18:44:30;15.30;;;8.10;;
12792;SDS011;6460;42.684;23.260;2024-03-22T18:46:59;13.20;;;7.63;;
12792;SDS011;6460;42.684;23.260;2024-03-22T18:49:25;12.10;;;7.20;;
12792;SDS011;6460;42.684;23.260;2024-03-22T18:51:53;8.60;;;7.07;;
12792;SDS011;6460;42.684;23.260;2024-03-22T18:54:20;10.73;;;6.90;;
12792;SDS011;6460;42.684;23.260;2024-03-22T18:56:47;10.80;;;7.37;;
12792;SDS011;6460;42.684;23.260;2024-03-22T18:59:13;13.93;;;7.37;;
12792;SDS011;6460;42.684;23.260;2024-03-22T19:01:40;13.93;;;8.37;;
12792;SDS011;6460;42.684;23.260;2024-03-22T19:04:06;13.97;;;9.30;;
12792;SDS011;6460;42.684;23.260;2024-03-22T19:06:36;20.07;;;12.03;;
12792;SDS011;6460;42.684;23.260;2024-03-22T19:09:02;11.23;;;7.57;;
12792;SDS011;6460;42.684;23.260;2024-03-22T19:11:31;10.00;;;7.37;;
12792;SDS011;6460;42.684;23.260;2024-03-22T19:13:56;11.07;;;7.97;;
12792;SDS011;6460;42.684;23.260;2024-03-22T19:16:24;14.13;;;7.37;;
12792;SDS011;6460;42.684;23.260;2024-03-22T19:18:51;12.07;;;7.53;;
12792;SDS011;6460;42.684;23.260;2024-03-22T19:21:18;14.50;;;7.33;;
12792;SDS011;6460;42.684;23.260;2024-03-22T19:23:44;9.20;;;6.90;;
12792;SDS011;6460;42.684;23.260;2024-03-22T19:26:11;10.63;;;7.10;;
12792;SDS011;6460;42.684;23.260;2024-03-22T19:28:39;12.67;;;6.97;;
12792;SDS011;6460;42.684;23.260;2024-03-22T19:31:06;10.03;;;7.27;;
12792;SDS011;6460;42.684;23.260;2024-03-22T19:33:33;10.97;;;8.17;;
12792;SDS011;6460;42.684;23.260;2024-03-22T19:36:04;15.00;;;8.20;;
12792;SDS011;6460;42.684;23.260;2024-03-22T19:38:31;12.27;;;7.37;;
12792;SDS011;6460;42.684;23.260;2024-03-22T19:40:59;11.73;;;7.20;;
12792;SDS011;6460;42.684;23.260;2024-03-22T19:43:25;12.60;;;7.40;;
12792;SDS011;6460;42.684;23.260;2024-03-22T19:45:56;10.70;;;6.73;;
12792;SDS011;6460;42.684;23.260;2024-03-22T19:48:26;16.20;;;9.27;;
12792;SDS011;6460;42.684;23.260;2024-03-22T19:50:56;20.43;;;9.33;;
12792;SDS011;6460;42.684;23.260;2024-03-22T19:53:23;19.20;;;9.97;;
12792;SDS011;6460;42.684;23.260;2024-03-22T19:55:50;18.67;;;9.57;;
12792;SDS011;6460;42.684;23.260;2024-03-22T19:58:18;22.20;;;11.20;;
12792;SDS011;6460;42.684;23.260;2024-03-22T20:00:48;25.50;;;12.43;;
12792;SDS011;6460;42.684;23.260;2024-03-22T20:03:16;23.47;;;12.23;;
12792;SDS011;6460;42.684;23.260;2024-03-22T20:05:45;23.23;;;12.43;;
12792;SDS011;6460;42.684;23.260;2024-03-22T20:08:11;19.20;;;10.20;;
12792;SDS011;6460;42.684;23.260;2024-03-22T20:10:38;17.90;;;11.73;;
12792;SDS011;6460;42.684;23.260;2024-03-22T20:13:04;18.73;;;11.33;;
12792;SDS011;6460;42.684;23.260;2024-03-22T20:15:32;20.13;;;9.33;;
12792;SDS011;6460;42.684;23.260;2024-03-22T20:17:59;18.10;;;9.90;;
12792;SDS011;6460;42.684;23.260;2024-03-22T20:20:28;15.60;;;10.60;;
12792;SDS011;6460;42.684;23.260;2024-03-22T20:22:54;17.50;;;10.57;;
12792;SDS011;6460;42.684;23.260;2024-03-22T20:25:23;16.03;;;10.47;;
12792;SDS011;6460;42.684;23.260;2024-03-22T20:27:51;19.73;;;10.33;;
12792;SDS011;6460;42.684;23.260;2024-03-22T20:30:26;19.50;;;10.13;;
12792;SDS011;6460;42.684;23.260;2024-03-22T20:32:52;16.87;;;9.90;;
12792;SDS011;6460;42.684;23.260;2024-03-22T20:35:19;19.63;;;10.37;;
12792;SDS011;6460;42.684;23.260;2024-03-22T20:37:47;16.63;;;10.40;;
